sensor_id;sensor_type;location;lat;lon;timestamp;temperature;humidity
1786;DHT22;890;48.158;11.540;2023-04-15T00:01:58;7.60;97.10
1786;DHT22;890;48.158;11.540;2023-04-15T00:04:24;7.50;97.00
1786;DHT22;890;48.158;11.540;2023-04-15T00:06:51;7.50;97.10
1786;DHT22;890;48.158;11.540;2023-04-15T00:09:20;7.50;97.10
1786;DHT22;890;48.158;11.540;2023-04-15T00:11:46;7.50;97.20
1786;DHT22;890;48.158;11.540;2023-04-15T00:14:12;7.50;97.10
1786;DHT22;890;48.158;11.540;2023-04-15T00:16:38;7.50;97.20
1786;DHT22;890;48.158;11.540;2023-04-15T00:19:04;7.50;97.20
1786;DHT22;890;48.158;11.540;2023-04-15T00:21:29;7.50;97.20
1786;DHT22;890;48.158;11.540;2023-04-15T00:23:55;7.50;97.20
1786;DHT22;890;48.158;11.540;2023-04-15T00:26:21;7.50;97.20
1786;DHT22;890;48.158;11.540;2023-04-15T00:28:47;7.50;97.20
1786;DHT22;890;48.158;11.540;2023-04-15T00:31:12;7.50;97.30
1786;DHT22;890;48.158;11.540;2023-04-15T00:33:38;7.40;97.20
1786;DHT22;890;48.158;11.540;2023-04-15T00:36:05;7.40;97.20
1786;DHT22;890;48.158;11.540;2023-04-15T00:38:31;7.40;97.20
1786;DHT22;890;48.158;11.540;2023-04-15T00:40:57;7.50;97.30
1786;DHT22;890;48.158;11.540;2023-04-15T00:43:22;7.40;97.30
1786;DHT22;890;48.158;11.540;2023-04-15T00:45:50;7.40;97.30
1786;DHT22;890;48.158;11.540;2023-04-15T00:48:16;7.50;97.40
1786;DHT22;890;48.158;11.540;2023-04-15T00:50:42;7.50;97.40
1786;DHT22;890;48.158;11.540;2023-04-15T00:53:08;7.50;97.40
1786;DHT22;890;48.158;11.540;2023-04-15T00:55:33;7.50;97.30
1786;DHT22;890;48.158;11.540;2023-04-15T00:58:00;7.60;97.40
1786;DHT22;890;48.158;11.540;2023-04-15T01:00:26;7.50;97.20
1786;DHT22;890;48.158;11.540;2023-04-15T01:02:52;7.50;97.20
1786;DHT22;890;48.158;11.540;2023-04-15T01:05:17;7.50;97.30
1786;DHT22;890;48.158;11.540;2023-04-15T01:07:45;7.60;97.20
1786;DHT22;890;48.158;11.540;2023-04-15T01:10:11;7.50;97.20
1786;DHT22;890;48.158;11.540;2023-04-15T01:12:37;7.50;97.20
1786;DHT22;890;48.158;11.540;2023-04-15T01:15:04;7.50;97.20
1786;DHT22;890;48.158;11.540;2023-04-15T01:17:30;7.50;97.20
1786;DHT22;890;48.158;11.540;2023-04-15T01:19:56;7.50;97.20
1786;DHT22;890;48.158;11.540;2023-04-15T01:22:26;7.50;97.30
1786;DHT22;890;48.158;11.540;2023-04-15T01:25:00;7.40;97.20
1786;DHT22;890;48.158;11.540;2023-04-15T01:27:29;7.40;97.50
1786;DHT22;890;48.158;11.540;2023-04-15T01:29:55;7.40;97.20
1786;DHT22;890;48.158;11.540;2023-04-15T01:32:21;7.40;97.30
1786;DHT22;890;48.158;11.540;2023-04-15T01:34:47;7.40;97.40
1786;DHT22;890;48.158;11.540;2023-04-15T01:37:13;7.40;97.30
1786;DHT22;890;48.158;11.540;2023-04-15T01:39:38;7.40;97.20
1786;DHT22;890;48.158;11.540;2023-04-15T01:42:04;7.40;97.10
1786;DHT22;890;48.158;11.540;2023-04-15T01:44:30;7.40;97.10
1786;DHT22;890;48.158;11.540;2023-04-15T01:46:55;7.40;97.10
1786;DHT22;890;48.158;11.540;2023-04-15T01:49:21;7.40;97.10
1786;DHT22;890;48.158;11.540;2023-04-15T01:51:47;7.30;97.00
1786;DHT22;890;48.158;11.540;2023-04-15T01:54:12;7.40;97.10
1786;DHT22;890;48.158;11.540;2023-04-15T01:56:38;7.40;97.10
1786;DHT22;890;48.158;11.540;2023-04-15T01:59:03;7.40;97.10
1786;DHT22;890;48.158;11.540;2023-04-15T02:01:29;7.40;96.90
1786;DHT22;890;48.158;11.540;2023-04-15T02:03:54;7.40;96.80
1786;DHT22;890;48.158;11.540;2023-04-15T02:06:21;7.30;96.90
1786;DHT22;890;48.158;11.540;2023-04-15T02:08:46;7.30;96.90
1786;DHT22;890;48.158;11.540;2023-04-15T02:11:12;7.40;97.00
1786;DHT22;890;48.158;11.540;2023-04-15T02:13:37;7.30;96.80
1786;DHT22;890;48.158;11.540;2023-04-15T02:16:03;7.30;96.80
1786;DHT22;890;48.158;11.540;2023-04-15T02:18:29;7.30;96.80
1786;DHT22;890;48.158;11.540;2023-04-15T02:20:54;7.20;96.80
1786;DHT22;890;48.158;11.540;2023-04-15T02:23:22;7.20;96.80
1786;DHT22;890;48.158;11.540;2023-04-15T02:25:48;7.20;96.80
1786;DHT22;890;48.158;11.540;2023-04-15T02:28:14;7.20;96.80
1786;DHT22;890;48.158;11.540;2023-04-15T02:30:39;7.20;97.00
1786;DHT22;890;48.158;11.540;2023-04-15T02:33:05;7.20;96.90
1786;DHT22;890;48.158;11.540;2023-04-15T02:35:32;7.20;96.90
1786;DHT22;890;48.158;11.540;2023-04-15T02:37:57;7.10;96.80
1786;DHT22;890;48.158;11.540;2023-04-15T02:40:23;7.10;96.80
1786;DHT22;890;48.158;11.540;2023-04-15T02:42:48;7.10;96.80
1786;DHT22;890;48.158;11.540;2023-04-15T02:45:14;7.10;96.80
1786;DHT22;890;48.158;11.540;2023-04-15T02:47:40;7.10;96.80
1786;DHT22;890;48.158;11.540;2023-04-15T02:50:08;7.10;96.80
1786;DHT22;890;48.158;11.540;2023-04-15T02:52:34;7.10;96.70
1786;DHT22;890;48.158;11.540;2023-04-15T02:55:00;7.10;96.70
1786;DHT22;890;48.158;11.540;2023-04-15T02:57:27;7.10;96.80
1786;DHT22;890;48.158;11.540;2023-04-15T02:59:53;7.10;96.80
1786;DHT22;890;48.158;11.540;2023-04-15T03:02:19;7.10;96.80
1786;DHT22;890;48.158;11.540;2023-04-15T03:04:45;7.20;96.70
1786;DHT22;890;48.158;11.540;2023-04-15T03:07:10;7.20;96.70
1786;DHT22;890;48.158;11.540;2023-04-15T03:09:36;7.20;96.70
1786;DHT22;890;48.158;11.540;2023-04-15T03:12:04;7.20;96.60
1786;DHT22;890;48.158;11.540;2023-04-15T03:14:29;7.20;96.40
1786;DHT22;890;48.158;11.540;2023-04-15T03:16:55;7.20;96.40
1786;DHT22;890;48.158;11.540;2023-04-15T03:19:20;7.20;96.30
1786;DHT22;890;48.158;11.540;2023-04-15T03:21:46;7.20;96.40
1786;DHT22;890;48.158;11.540;2023-04-15T03:24:12;7.30;96.50
1786;DHT22;890;48.158;11.540;2023-04-15T03:26:37;7.40;96.30
1786;DHT22;890;48.158;11.540;2023-04-15T03:29:03;7.40;96.30
1786;DHT22;890;48.158;11.540;2023-04-15T03:31:28;7.30;95.80
1786;DHT22;890;48.158;11.540;2023-04-15T03:33:54;7.40;96.30
1786;DHT22;890;48.158;11.540;2023-04-15T03:36:20;7.40;95.90
1786;DHT22;890;48.158;11.540;2023-04-15T03:38:45;7.40;95.80
1786;DHT22;890;48.158;11.540;2023-04-15T03:41:11;7.40;95.70
1786;DHT22;890;48.158;11.540;2023-04-15T03:43:37;7.50;95.80
1786;DHT22;890;48.158;11.540;2023-04-15T03:46:03;7.50;95.70
1786;DHT22;890;48.158;11.540;2023-04-15T03:48:28;7.50;95.60
1786;DHT22;890;48.158;11.540;2023-04-15T03:50:54;7.50;95.70
1786;DHT22;890;48.158;11.540;2023-04-15T03:53:20;7.50;95.70
1786;DHT22;890;48.158;11.540;2023-04-15T03:55:45;7.60;95.50
1786;DHT22;890;48.158;11.540;2023-04-15T03:58:12;7.60;95.30
1786;DHT22;890;48.158;11.540;2023-04-15T04:00:38;7.60;95.30
1786;DHT22;890;48.158;11.540;2023-04-15T04:03:04;7.60;95.20
1786;DHT22;890;48.158;11.540;2023-04-15T04:05:29;7.60;95.00
1786;DHT22;890;48.158;11.540;2023-04-15T04:07:55;7.50;95.30
1786;DHT22;890;48.158;11.540;2023-04-15T04:10:21;7.50;95.00
1786;DHT22;890;48.158;11.540;2023-04-15T04:12:46;7.50;95.00
1786;DHT22;890;48.158;11.540;2023-04-15T04:15:12;7.60;94.90
1786;DHT22;890;48.158;11.540;2023-04-15T04:17:38;7.50;94.80
1786;DHT22;890;48.158;11.540;2023-04-15T04:20:04;7.50;94.90
1786;DHT22;890;48.158;11.540;2023-04-15T04:22:30;7.50;94.90
1786;DHT22;890;48.158;11.540;2023-04-15T04:24:56;7.50;94.90
1786;DHT22;890;48.158;11.540;2023-04-15T04:27:23;7.60;94.90
1786;DHT22;890;48.158;11.540;2023-04-15T04:29:49;7.60;94.90
1786;DHT22;890;48.158;11.540;2023-04-15T04:32:16;7.70;94.70
1786;DHT22;890;48.158;11.540;2023-04-15T04:34:42;7.70;94.60
1786;DHT22;890;48.158;11.540;2023-04-15T04:37:07;7.60;94.30
1786;DHT22;890;48.158;11.540;2023-04-15T04:39:33;7.60;94.40
1786;DHT22;890;48.158;11.540;2023-04-15T04:41:58;7.50;94.40
1786;DHT22;890;48.158;11.540;2023-04-15T04:44:24;7.50;94.30
1786;DHT22;890;48.158;11.540;2023-04-15T04:46:49;7.40;94.10
1786;DHT22;890;48.158;11.540;2023-04-15T04:49:15;7.40;94.00
1786;DHT22;890;48.158;11.540;2023-04-15T04:51:41;7.40;94.00
1786;DHT22;890;48.158;11.540;2023-04-15T04:54:06;7.40;94.10
1786;DHT22;890;48.158;11.540;2023-04-15T04:56:32;7.50;94.10
1786;DHT22;890;48.158;11.540;2023-04-15T04:58:59;7.50;93.90
1786;DHT22;890;48.158;11.540;2023-04-15T05:01:24;7.50;93.90
1786;DHT22;890;48.158;11.540;2023-04-15T05:03:51;7.50;93.90
1786;DHT22;890;48.158;11.540;2023-04-15T05:06:17;7.50;93.70
1786;DHT22;890;48.158;11.540;2023-04-15T05:08:43;7.50;93.70
1786;DHT22;890;48.158;11.540;2023-04-15T05:11:08;7.50;93.60
1786;DHT22;890;48.158;11.540;2023-04-15T05:13:34;7.50;93.40
1786;DHT22;890;48.158;11.540;2023-04-15T05:16:03;7.50;93.40
1786;DHT22;890;48.158;11.540;2023-04-15T05:18:29;7.50;93.20
1786;DHT22;890;48.158;11.540;2023-04-15T05:20:55;7.50;93.10
1786;DHT22;890;48.158;11.540;2023-04-15T05:23:20;7.50;92.80
1786;DHT22;890;48.158;11.540;2023-04-15T05:25:46;7.40;92.70
1786;DHT22;890;48.158;11.540;2023-04-15T05:28:12;7.40;92.60
1786;DHT22;890;48.158;11.540;2023-04-15T05:30:38;7.40;92.60
1786;DHT22;890;48.158;11.540;2023-04-15T05:33:03;7.30;92.60
1786;DHT22;890;48.158;11.540;2023-04-15T05:35:29;7.40;92.70
1786;DHT22;890;48.158;11.540;2023-04-15T05:37:55;7.50;92.40
1786;DHT22;890;48.158;11.540;2023-04-15T05:40:20;7.50;92.30
1786;DHT22;890;48.158;11.540;2023-04-15T05:42:46;7.50;92.10
1786;DHT22;890;48.158;11.540;2023-04-15T05:45:12;7.50;91.80
1786;DHT22;890;48.158;11.540;2023-04-15T05:47:37;7.40;91.70
1786;DHT22;890;48.158;11.540;2023-04-15T05:50:03;7.50;91.60
1786;DHT22;890;48.158;11.540;2023-04-15T05:52:30;7.50;91.40
1786;DHT22;890;48.158;11.540;2023-04-15T05:54:56;7.50;91.10
1786;DHT22;890;48.158;11.540;2023-04-15T05:57:21;7.40;91.00
1786;DHT22;890;48.158;11.540;2023-04-15T05:59:47;7.40;91.00
1786;DHT22;890;48.158;11.540;2023-04-15T06:02:13;7.40;90.80
1786;DHT22;890;48.158;11.540;2023-04-15T06:04:39;7.40;91.00
1786;DHT22;890;48.158;11.540;2023-04-15T06:07:07;7.40;90.40
1786;DHT22;890;48.158;11.540;2023-04-15T06:09:33;7.30;90.20
1786;DHT22;890;48.158;11.540;2023-04-15T06:11:59;7.40;90.20
1786;DHT22;890;48.158;11.540;2023-04-15T06:14:26;7.40;90.10
1786;DHT22;890;48.158;11.540;2023-04-15T06:16:52;7.40;90.00
1786;DHT22;890;48.158;11.540;2023-04-15T06:19:17;7.50;89.70
1786;DHT22;890;48.158;11.540;2023-04-15T06:21:44;7.50;89.30
1786;DHT22;890;48.158;11.540;2023-04-15T06:24:10;7.50;89.00
1786;DHT22;890;48.158;11.540;2023-04-15T06:26:36;7.60;88.60
1786;DHT22;890;48.158;11.540;2023-04-15T06:29:02;7.70;88.60
1786;DHT22;890;48.158;11.540;2023-04-15T06:31:27;7.70;88.10
1786;DHT22;890;48.158;11.540;2023-04-15T06:33:53;7.70;87.70
1786;DHT22;890;48.158;11.540;2023-04-15T06:36:18;7.80;87.50
1786;DHT22;890;48.158;11.540;2023-04-15T06:38:44;7.90;87.20
1786;DHT22;890;48.158;11.540;2023-04-15T06:41:09;7.90;87.60
1786;DHT22;890;48.158;11.540;2023-04-15T06:43:35;7.90;86.50
1786;DHT22;890;48.158;11.540;2023-04-15T06:46:01;8.00;86.30
1786;DHT22;890;48.158;11.540;2023-04-15T06:48:26;8.00;85.90
1786;DHT22;890;48.158;11.540;2023-04-15T06:50:52;8.00;85.40
1786;DHT22;890;48.158;11.540;2023-04-15T06:53:18;8.10;85.40
1786;DHT22;890;48.158;11.540;2023-04-15T06:55:43;8.10;85.20
1786;DHT22;890;48.158;11.540;2023-04-15T06:58:09;8.20;85.10
1786;DHT22;890;48.158;11.540;2023-04-15T07:00:35;8.20;84.80
1786;DHT22;890;48.158;11.540;2023-04-15T07:03:03;8.30;84.60
1786;DHT22;890;48.158;11.540;2023-04-15T07:05:29;8.50;84.30
1786;DHT22;890;48.158;11.540;2023-04-15T07:07:55;8.50;83.20
1786;DHT22;890;48.158;11.540;2023-04-15T07:10:21;8.50;82.90
1786;DHT22;890;48.158;11.540;2023-04-15T07:12:47;8.50;82.70
1786;DHT22;890;48.158;11.540;2023-04-15T07:15:13;8.60;82.60
1786;DHT22;890;48.158;11.540;2023-04-15T07:17:40;8.70;82.10
1786;DHT22;890;48.158;11.540;2023-04-15T07:20:06;8.70;81.60
1786;DHT22;890;48.158;11.540;2023-04-15T07:22:32;8.80;81.30
1786;DHT22;890;48.158;11.540;2023-04-15T07:24:58;8.90;80.90
1786;DHT22;890;48.158;11.540;2023-04-15T07:27:23;8.90;80.70
1786;DHT22;890;48.158;11.540;2023-04-15T07:29:49;9.00;80.80
1786;DHT22;890;48.158;11.540;2023-04-15T07:32:16;9.20;80.60
1786;DHT22;890;48.158;11.540;2023-04-15T07:34:42;9.30;80.90
1786;DHT22;890;48.158;11.540;2023-04-15T07:37:08;9.20;79.70
1786;DHT22;890;48.158;11.540;2023-04-15T07:39:34;9.20;79.30
1786;DHT22;890;48.158;11.540;2023-04-15T07:41:59;9.20;78.90
1786;DHT22;890;48.158;11.540;2023-04-15T07:44:26;9.30;78.80
1786;DHT22;890;48.158;11.540;2023-04-15T07:46:51;9.40;78.60
1786;DHT22;890;48.158;11.540;2023-04-15T07:49:17;9.60;78.40
1786;DHT22;890;48.158;11.540;2023-04-15T07:51:43;9.60;78.30
1786;DHT22;890;48.158;11.540;2023-04-15T07:54:09;9.80;78.10
1786;DHT22;890;48.158;11.540;2023-04-15T07:56:35;9.90;78.00
1786;DHT22;890;48.158;11.540;2023-04-15T07:59:00;10.10;76.60
1786;DHT22;890;48.158;11.540;2023-04-15T08:01:30;10.10;75.90
1786;DHT22;890;48.158;11.540;2023-04-15T08:03:57;10.20;75.80
1786;DHT22;890;48.158;11.540;2023-04-15T08:06:23;10.40;75.40
1786;DHT22;890;48.158;11.540;2023-04-15T08:08:49;10.60;75.10
1786;DHT22;890;48.158;11.540;2023-04-15T08:11:15;10.70;74.90
1786;DHT22;890;48.158;11.540;2023-04-15T08:13:41;10.80;74.40
1786;DHT22;890;48.158;11.540;2023-04-15T08:18:38;11.10;73.50
1786;DHT22;890;48.158;11.540;2023-04-15T08:21:04;11.20;73.60
1786;DHT22;890;48.158;11.540;2023-04-15T08:23:30;11.20;73.40
1786;DHT22;890;48.158;11.540;2023-04-15T08:25:57;11.40;73.90
1786;DHT22;890;48.158;11.540;2023-04-15T08:28:22;11.40;72.50
1786;DHT22;890;48.158;11.540;2023-04-15T08:30:48;11.30;71.90
1786;DHT22;890;48.158;11.540;2023-04-15T08:33:13;11.40;71.90
1786;DHT22;890;48.158;11.540;2023-04-15T08:35:39;11.50;70.00
1786;DHT22;890;48.158;11.540;2023-04-15T08:38:04;11.60;70.20
1786;DHT22;890;48.158;11.540;2023-04-15T08:40:40;11.60;69.50
1786;DHT22;890;48.158;11.540;2023-04-15T08:43:09;11.50;68.60
1786;DHT22;890;48.158;11.540;2023-04-15T08:45:37;11.30;68.50
1786;DHT22;890;48.158;11.540;2023-04-15T08:48:04;11.30;68.00
1786;DHT22;890;48.158;11.540;2023-04-15T08:50:31;11.20;67.70
1786;DHT22;890;48.158;11.540;2023-04-15T08:52:58;11.10;67.30
1786;DHT22;890;48.158;11.540;2023-04-15T08:55:28;11.10;67.20
1786;DHT22;890;48.158;11.540;2023-04-15T08:57:55;10.80;66.80
1786;DHT22;890;48.158;11.540;2023-04-15T09:00:21;10.80;67.30
1786;DHT22;890;48.158;11.540;2023-04-15T09:02:47;10.80;67.30
1786;DHT22;890;48.158;11.540;2023-04-15T09:05:13;10.80;67.30
1786;DHT22;890;48.158;11.540;2023-04-15T09:07:39;10.80;67.20
1786;DHT22;890;48.158;11.540;2023-04-15T09:10:05;10.90;67.10
1786;DHT22;890;48.158;11.540;2023-04-15T09:12:36;11.10;66.90
1786;DHT22;890;48.158;11.540;2023-04-15T09:15:03;11.10;66.30
1786;DHT22;890;48.158;11.540;2023-04-15T09:17:32;11.10;66.50
1786;DHT22;890;48.158;11.540;2023-04-15T09:20:11;11.30;66.50
1786;DHT22;890;48.158;11.540;2023-04-15T09:22:38;11.40;65.70
1786;DHT22;890;48.158;11.540;2023-04-15T09:27:50;11.60;65.50
1786;DHT22;890;48.158;11.540;2023-04-15T09:30:16;11.50;64.60
1786;DHT22;890;48.158;11.540;2023-04-15T09:32:54;11.50;65.10
1786;DHT22;890;48.158;11.540;2023-04-15T09:35:21;11.40;65.00
1786;DHT22;890;48.158;11.540;2023-04-15T09:37:47;11.50;65.50
1786;DHT22;890;48.158;11.540;2023-04-15T09:40:13;11.60;65.50
1786;DHT22;890;48.158;11.540;2023-04-15T09:42:55;11.80;65.90
1786;DHT22;890;48.158;11.540;2023-04-15T09:45:21;11.90;65.50
1786;DHT22;890;48.158;11.540;2023-04-15T09:47:47;12.00;65.80
1786;DHT22;890;48.158;11.540;2023-04-15T09:50:13;12.00;65.40
1786;DHT22;890;48.158;11.540;2023-04-15T09:52:43;11.90;65.00
1786;DHT22;890;48.158;11.540;2023-04-15T09:55:09;11.80;64.10
1786;DHT22;890;48.158;11.540;2023-04-15T09:57:36;11.70;63.60
1786;DHT22;890;48.158;11.540;2023-04-15T10:00:06;11.70;63.80
1786;DHT22;890;48.158;11.540;2023-04-15T10:02:32;11.50;63.50
1786;DHT22;890;48.158;11.540;2023-04-15T10:04:58;11.40;63.50
1786;DHT22;890;48.158;11.540;2023-04-15T10:07:25;11.50;63.80
1786;DHT22;890;48.158;11.540;2023-04-15T10:09:51;11.30;64.40
1786;DHT22;890;48.158;11.540;2023-04-15T10:12:18;11.40;64.40
1786;DHT22;890;48.158;11.540;2023-04-15T10:14:48;11.30;64.40
1786;DHT22;890;48.158;11.540;2023-04-15T10:17:17;11.30;63.60
1786;DHT22;890;48.158;11.540;2023-04-15T10:19:46;11.30;63.60
1786;DHT22;890;48.158;11.540;2023-04-15T10:22:13;11.40;63.70
1786;DHT22;890;48.158;11.540;2023-04-15T10:24:40;11.50;63.80
1786;DHT22;890;48.158;11.540;2023-04-15T10:27:06;11.60;63.50
1786;DHT22;890;48.158;11.540;2023-04-15T10:29:32;11.70;62.90
1786;DHT22;890;48.158;11.540;2023-04-15T10:31:59;11.60;62.80
1786;DHT22;890;48.158;11.540;2023-04-15T10:34:25;11.50;62.70
1786;DHT22;890;48.158;11.540;2023-04-15T10:36:57;11.60;63.60
1786;DHT22;890;48.158;11.540;2023-04-15T10:44:31;11.50;62.30
1786;DHT22;890;48.158;11.540;2023-04-15T10:46:57;11.60;62.50
1786;DHT22;890;48.158;11.540;2023-04-15T10:49:24;11.70;62.60
1786;DHT22;890;48.158;11.540;2023-04-15T10:51:51;11.70;62.40
1786;DHT22;890;48.158;11.540;2023-04-15T10:57:13;11.60;61.90
1786;DHT22;890;48.158;11.540;2023-04-15T11:00:00;11.60;61.80
1786;DHT22;890;48.158;11.540;2023-04-15T11:02:56;11.50;61.70
1786;DHT22;890;48.158;11.540;2023-04-15T11:05:48;11.40;61.70
1786;DHT22;890;48.158;11.540;2023-04-15T11:08:13;11.30;62.10
1786;DHT22;890;48.158;11.540;2023-04-15T11:10:49;11.50;62.10
1786;DHT22;890;48.158;11.540;2023-04-15T11:13:17;11.40;61.80
1786;DHT22;890;48.158;11.540;2023-04-15T11:15:47;11.40;62.00
1786;DHT22;890;48.158;11.540;2023-04-15T11:18:16;11.50;61.80
1786;DHT22;890;48.158;11.540;2023-04-15T11:20:47;11.50;61.90
1786;DHT22;890;48.158;11.540;2023-04-15T11:23:15;11.40;61.80
1786;DHT22;890;48.158;11.540;2023-04-15T11:25:42;11.40;62.10
1786;DHT22;890;48.158;11.540;2023-04-15T11:28:08;11.30;61.90
1786;DHT22;890;48.158;11.540;2023-04-15T11:30:36;11.30;61.90
1786;DHT22;890;48.158;11.540;2023-04-15T11:33:06;11.10;62.60
1786;DHT22;890;48.158;11.540;2023-04-15T11:35:33;10.90;62.10
1786;DHT22;890;48.158;11.540;2023-04-15T11:38:08;10.90;62.60
1786;DHT22;890;48.158;11.540;2023-04-15T11:40:35;10.90;63.00
1786;DHT22;890;48.158;11.540;2023-04-15T11:43:09;10.90;63.00
1786;DHT22;890;48.158;11.540;2023-04-15T11:45:36;10.90;63.20
1786;DHT22;890;48.158;11.540;2023-04-15T11:50:31;10.80;63.40
1786;DHT22;890;48.158;11.540;2023-04-15T11:53:08;10.90;63.50
1786;DHT22;890;48.158;11.540;2023-04-15T11:55:48;10.90;63.40
1786;DHT22;890;48.158;11.540;2023-04-15T11:58:18;11.00;64.10
1786;DHT22;890;48.158;11.540;2023-04-15T12:00:54;11.10;63.30
1786;DHT22;890;48.158;11.540;2023-04-15T12:16:42;11.10;62.10
1786;DHT22;890;48.158;11.540;2023-04-15T12:19:13;11.20;62.10
1786;DHT22;890;48.158;11.540;2023-04-15T12:21:43;11.20;62.20
1786;DHT22;890;48.158;11.540;2023-04-15T12:24:10;11.30;62.30
1786;DHT22;890;48.158;11.540;2023-04-15T12:26:51;11.40;62.20
1786;DHT22;890;48.158;11.540;2023-04-15T12:29:18;11.50;61.90
1786;DHT22;890;48.158;11.540;2023-04-15T12:34:15;11.60;61.30
1786;DHT22;890;48.158;11.540;2023-04-15T12:36:41;11.70;61.00
1786;DHT22;890;48.158;11.540;2023-04-15T12:39:07;11.70;60.80
1786;DHT22;890;48.158;11.540;2023-04-15T12:41:33;11.70;60.80
1786;DHT22;890;48.158;11.540;2023-04-15T12:43:59;11.60;60.10
1786;DHT22;890;48.158;11.540;2023-04-15T12:46:25;11.60;58.70
1786;DHT22;890;48.158;11.540;2023-04-15T12:48:51;11.80;59.40
1786;DHT22;890;48.158;11.540;2023-04-15T12:51:17;11.40;58.50
1786;DHT22;890;48.158;11.540;2023-04-15T12:53:43;11.40;58.10
1786;DHT22;890;48.158;11.540;2023-04-15T12:56:09;11.30;58.10
1786;DHT22;890;48.158;11.540;2023-04-15T12:58:35;11.40;58.10
1786;DHT22;890;48.158;11.540;2023-04-15T13:01:01;11.30;57.40
1786;DHT22;890;48.158;11.540;2023-04-15T13:03:26;11.40;57.40
1786;DHT22;890;48.158;11.540;2023-04-15T13:05:52;11.20;57.30
1786;DHT22;890;48.158;11.540;2023-04-15T13:08:18;11.30;57.10
1786;DHT22;890;48.158;11.540;2023-04-15T13:10:43;11.20;57.20
1786;DHT22;890;48.158;11.540;2023-04-15T13:13:09;11.20;57.30
1786;DHT22;890;48.158;11.540;2023-04-15T13:15:34;11.20;57.20
1786;DHT22;890;48.158;11.540;2023-04-15T13:18:00;11.20;57.30
1786;DHT22;890;48.158;11.540;2023-04-15T13:20:26;11.10;57.30
1786;DHT22;890;48.158;11.540;2023-04-15T13:22:53;11.00;57.30
1786;DHT22;890;48.158;11.540;2023-04-15T13:25:18;11.10;57.30
1786;DHT22;890;48.158;11.540;2023-04-15T13:27:44;11.10;57.50
1786;DHT22;890;48.158;11.540;2023-04-15T13:30:10;11.10;57.30
1786;DHT22;890;48.158;11.540;2023-04-15T13:32:36;11.10;57.50
1786;DHT22;890;48.158;11.540;2023-04-15T13:35:01;11.10;57.20
1786;DHT22;890;48.158;11.540;2023-04-15T13:37:28;11.10;57.20
1786;DHT22;890;48.158;11.540;2023-04-15T13:39:55;11.00;57.30
1786;DHT22;890;48.158;11.540;2023-04-15T13:42:21;10.90;57.60
1786;DHT22;890;48.158;11.540;2023-04-15T13:44:48;10.90;57.80
1786;DHT22;890;48.158;11.540;2023-04-15T13:47:14;10.80;58.20
1786;DHT22;890;48.158;11.540;2023-04-15T13:49:40;10.70;58.60
1786;DHT22;890;48.158;11.540;2023-04-15T13:52:06;10.60;59.00
1786;DHT22;890;48.158;11.540;2023-04-15T13:54:33;10.60;59.50
1786;DHT22;890;48.158;11.540;2023-04-15T13:56:59;10.50;59.80
1786;DHT22;890;48.158;11.540;2023-04-15T13:59:26;10.50;60.20
1786;DHT22;890;48.158;11.540;2023-04-15T14:01:52;10.50;60.40
1786;DHT22;890;48.158;11.540;2023-04-15T14:04:17;10.50;60.50
1786;DHT22;890;48.158;11.540;2023-04-15T14:06:44;10.60;60.90
1786;DHT22;890;48.158;11.540;2023-04-15T14:09:10;10.50;60.70
1786;DHT22;890;48.158;11.540;2023-04-15T14:11:37;10.50;60.60
1786;DHT22;890;48.158;11.540;2023-04-15T14:14:03;10.50;60.50
1786;DHT22;890;48.158;11.540;2023-04-15T14:16:31;10.50;60.40
1786;DHT22;890;48.158;11.540;2023-04-15T14:18:57;10.60;60.40
1786;DHT22;890;48.158;11.540;2023-04-15T14:21:23;10.70;60.40
1786;DHT22;890;48.158;11.540;2023-04-15T14:23:49;10.80;60.20
1786;DHT22;890;48.158;11.540;2023-04-15T14:26:14;10.80;59.60
1786;DHT22;890;48.158;11.540;2023-04-15T14:28:40;10.80;59.40
1786;DHT22;890;48.158;11.540;2023-04-15T14:31:07;10.70;59.40
1786;DHT22;890;48.158;11.540;2023-04-15T14:33:32;10.70;59.10
1786;DHT22;890;48.158;11.540;2023-04-15T14:35:58;10.60;59.00
1786;DHT22;890;48.158;11.540;2023-04-15T14:38:23;10.70;59.10
1786;DHT22;890;48.158;11.540;2023-04-15T14:40:49;10.70;59.10
1786;DHT22;890;48.158;11.540;2023-04-15T14:43:15;10.70;59.20
1786;DHT22;890;48.158;11.540;2023-04-15T14:45:41;10.70;59.30
1786;DHT22;890;48.158;11.540;2023-04-15T14:48:07;10.80;59.40
1786;DHT22;890;48.158;11.540;2023-04-15T14:50:34;10.80;59.30
1786;DHT22;890;48.158;11.540;2023-04-15T14:53:00;10.70;59.90
1786;DHT22;890;48.158;11.540;2023-04-15T14:55:26;10.70;59.40
1786;DHT22;890;48.158;11.540;2023-04-15T14:57:51;10.70;59.50
1786;DHT22;890;48.158;11.540;2023-04-15T15:00:17;10.70;59.80
1786;DHT22;890;48.158;11.540;2023-04-15T15:02:43;10.70;60.00
1786;DHT22;890;48.158;11.540;2023-04-15T15:05:09;10.60;60.30
1786;DHT22;890;48.158;11.540;2023-04-15T15:07:37;10.60;60.90
1786;DHT22;890;48.158;11.540;2023-04-15T15:10:03;10.50;61.60
1786;DHT22;890;48.158;11.540;2023-04-15T15:12:28;10.30;62.00
1786;DHT22;890;48.158;11.540;2023-04-15T15:14:54;10.20;63.10
1786;DHT22;890;48.158;11.540;2023-04-15T15:17:20;10.00;63.60
1786;DHT22;890;48.158;11.540;2023-04-15T15:19:46;10.00;64.80
1786;DHT22;890;48.158;11.540;2023-04-15T15:22:12;9.80;66.60
1786;DHT22;890;48.158;11.540;2023-04-15T15:24:37;9.70;66.70
1786;DHT22;890;48.158;11.540;2023-04-15T15:27:03;9.60;67.60
1786;DHT22;890;48.158;11.540;2023-04-15T15:29:28;9.50;68.20
1786;DHT22;890;48.158;11.540;2023-04-15T15:31:54;8.00;67.60
1786;DHT22;890;48.158;11.540;2023-04-15T15:34:21;9.30;69.10
1786;DHT22;890;48.158;11.540;2023-04-15T15:36:47;9.20;69.50
1786;DHT22;890;48.158;11.540;2023-04-15T15:39:12;9.20;70.10
1786;DHT22;890;48.158;11.540;2023-04-15T15:41:38;9.20;70.70
1786;DHT22;890;48.158;11.540;2023-04-15T15:44:03;9.20;71.00
1786;DHT22;890;48.158;11.540;2023-04-15T15:46:29;9.10;71.50
1786;DHT22;890;48.158;11.540;2023-04-15T15:48:56;9.00;71.20
1786;DHT22;890;48.158;11.540;2023-04-15T15:51:22;9.10;71.60
1786;DHT22;890;48.158;11.540;2023-04-15T15:53:48;9.10;72.10
1786;DHT22;890;48.158;11.540;2023-04-15T15:56:13;9.00;72.10
1786;DHT22;890;48.158;11.540;2023-04-15T15:58:40;9.00;72.20
1786;DHT22;890;48.158;11.540;2023-04-15T16:01:05;9.00;72.40
1786;DHT22;890;48.158;11.540;2023-04-15T16:03:31;9.00;72.40
1786;DHT22;890;48.158;11.540;2023-04-15T16:05:57;8.90;72.10
1786;DHT22;890;48.158;11.540;2023-04-15T16:08:22;9.00;72.60
1786;DHT22;890;48.158;11.540;2023-04-15T16:10:48;9.00;72.90
1786;DHT22;890;48.158;11.540;2023-04-15T16:13:14;9.00;73.00
1786;DHT22;890;48.158;11.540;2023-04-15T16:15:39;9.00;73.00
1786;DHT22;890;48.158;11.540;2023-04-15T16:18:05;8.90;73.10
1786;DHT22;890;48.158;11.540;2023-04-15T16:20:31;8.90;73.50
1786;DHT22;890;48.158;11.540;2023-04-15T16:22:57;8.90;73.60
1786;DHT22;890;48.158;11.540;2023-04-15T16:25:24;8.90;73.60
1786;DHT22;890;48.158;11.540;2023-04-15T16:27:49;8.80;73.70
1786;DHT22;890;48.158;11.540;2023-04-15T16:30:15;8.90;73.80
1786;DHT22;890;48.158;11.540;2023-04-15T16:32:41;8.90;73.90
1786;DHT22;890;48.158;11.540;2023-04-15T16:35:07;8.90;74.00
1786;DHT22;890;48.158;11.540;2023-04-15T16:37:33;8.90;74.10
1786;DHT22;890;48.158;11.540;2023-04-15T16:40:01;8.90;74.20